createdAt,value
2024-02-09T00:01:15.640Z,30.65
2024-02-09T00:03:42.949Z,30.64
2024-02-09T00:06:09.676Z,30.69
2024-02-09T00:08:38.476Z,30.70
2024-02-09T00:11:08.687Z,30.70
2024-02-09T00:13:35.455Z,30.74
2024-02-09T00:16:06.020Z,30.76
2024-02-09T00:18:32.927Z,30.71
2024-02-09T00:20:59.699Z,30.76
2024-02-09T00:23:26.384Z,30.76
2024-02-09T00:25:53.186Z,30.77
2024-02-09T00:28:20.063Z,30.78
2024-02-09T00:30:46.829Z,30.77
2024-02-09T00:33:13.711Z,30.83
2024-02-09T00:35:43.700Z,30.86
2024-02-09T00:38:11.172Z,30.86
2024-02-09T00:40:38.225Z,30.87
2024-02-09T00:43:05.213Z,30.85
2024-02-09T00:45:34.994Z,30.85
2024-02-09T00:48:01.850Z,30.87
2024-02-09T00:50:32.066Z,30.89
2024-02-09T00:53:11.919Z,30.86
2024-02-09T00:55:39.056Z,30.89
2024-02-09T00:58:05.829Z,30.90
2024-02-09T01:00:33.226Z,30.91
2024-02-09T01:03:00.641Z,30.92
2024-02-09T01:05:27.352Z,30.98
2024-02-09T01:07:54.013Z,31.00
2024-02-09T01:10:20.722Z,31.02
2024-02-09T01:13:06.187Z,31.04
2024-02-09T01:15:51.726Z,31.04
2024-02-09T01:18:37.406Z,31.07
2024-02-09T01:21:22.736Z,31.06
2024-02-09T01:24:08.295Z,31.09
2024-02-09T01:26:53.435Z,31.13
2024-02-09T01:29:38.463Z,31.13
2024-02-09T01:32:23.637Z,31.16
2024-02-09T01:35:11.218Z,31.18
2024-02-09T01:37:56.529Z,31.18
2024-02-09T01:40:41.723Z,31.20
2024-02-09T01:43:27.065Z,31.22
2024-02-09T01:46:12.778Z,31.24
2024-02-09T01:49:01.242Z,31.30
2024-02-09T01:51:47.155Z,31.28
2024-02-09T01:54:32.512Z,31.32
2024-02-09T01:57:17.814Z,31.37
2024-02-09T02:00:06.076Z,31.34
2024-02-09T02:02:51.390Z,31.38
2024-02-09T02:05:36.669Z,31.39
2024-02-09T02:08:21.956Z,31.43
2024-02-09T02:11:07.421Z,31.47
2024-02-09T02:13:53.094Z,31.48
2024-02-09T02:16:38.732Z,31.51
2024-02-09T02:19:24.165Z,31.55
2024-02-09T02:22:18.697Z,31.54
2024-02-09T02:25:04.449Z,31.55
2024-02-09T02:27:58.938Z,31.59
2024-02-09T02:30:44.402Z,31.58
2024-02-09T02:33:29.958Z,31.63
2024-02-09T02:36:15.589Z,31.65
2024-02-09T02:39:00.758Z,31.68
2024-02-09T02:41:27.352Z,31.67
2024-02-09T02:43:54.015Z,31.71
2024-02-09T02:46:20.861Z,31.76
2024-02-09T02:49:06.723Z,31.77
2024-02-09T02:51:52.544Z,31.82
2024-02-09T02:54:37.881Z,31.80
2024-02-09T02:57:23.568Z,31.86
2024-02-09T03:00:13.020Z,31.86
2024-02-09T03:02:58.693Z,31.87
2024-02-09T03:05:26.533Z,31.91
2024-02-09T03:08:43.328Z,31.97
2024-02-09T03:10:44.486Z,31.96
2024-02-09T03:13:11.214Z,32.00
2024-02-09T03:15:37.927Z,31.92
2024-02-09T03:18:06.355Z,31.97
2024-02-09T03:20:33.248Z,32.03
2024-02-09T03:23:06.153Z,32.01
2024-02-09T03:25:32.883Z,32.03
2024-02-09T03:27:59.568Z,32.03
2024-02-09T03:30:28.125Z,32.03
2024-02-09T03:32:55.072Z,32.06
2024-02-09T03:35:24.132Z,32.09
2024-02-09T03:37:50.860Z,32.11
2024-02-09T03:40:17.703Z,32.09
2024-02-09T03:42:44.584Z,32.08
2024-02-09T03:45:11.272Z,32.11
2024-02-09T03:47:38.026Z,32.12
2024-02-09T03:50:06.008Z,32.10
2024-02-09T03:52:33.039Z,32.11
2024-02-09T03:54:59.993Z,32.11
2024-02-09T03:57:28.080Z,32.12
2024-02-09T03:59:55.011Z,32.11
2024-02-09T04:02:23.000Z,32.16
2024-02-09T04:04:49.862Z,32.14
2024-02-09T04:07:23.055Z,32.16
2024-02-09T04:10:15.092Z,32.15
2024-02-09T04:12:36.866Z,32.15
2024-02-09T04:15:03.796Z,32.18
2024-02-09T04:17:30.567Z,32.22
2024-02-09T04:19:58.332Z,32.23
2024-02-09T04:22:25.334Z,32.22
2024-02-09T04:24:52.114Z,32.24
2024-02-09T04:27:21.512Z,32.27
2024-02-09T04:29:48.128Z,32.24
2024-02-09T04:32:14.769Z,32.26
2024-02-09T04:34:41.625Z,32.23
2024-02-09T04:37:08.447Z,32.27
2024-02-09T04:39:35.232Z,32.24
2024-02-09T04:42:01.989Z,32.27
2024-02-09T04:44:28.681Z,32.29
2024-02-09T04:46:55.459Z,32.32
2024-02-09T04:49:26.273Z,32.34
2024-02-09T04:51:53.016Z,32.31
2024-02-09T04:54:19.714Z,32.34
2024-02-09T04:56:46.551Z,32.36
2024-02-09T04:59:13.448Z,32.36
2024-02-09T05:01:41.389Z,32.37
2024-02-09T05:04:12.766Z,32.39
2024-02-09T05:06:39.697Z,32.38
2024-02-09T05:09:08.266Z,32.39
2024-02-09T05:11:37.716Z,32.44
2024-02-09T05:14:07.801Z,32.46
2024-02-09T05:16:35.367Z,32.46
2024-02-09T05:19:04.973Z,32.50
2024-02-09T05:21:37.533Z,32.49
2024-02-09T05:24:04.957Z,32.49
2024-02-09T05:26:31.706Z,32.51
2024-02-09T05:28:58.383Z,32.54
2024-02-09T05:31:25.253Z,32.55
2024-02-09T05:33:52.505Z,32.56
2024-02-09T05:36:28.670Z,32.57
2024-02-09T05:38:58.411Z,32.59
2024-02-09T05:41:27.579Z,32.60
2024-02-09T05:43:58.320Z,32.65
2024-02-09T05:46:26.680Z,32.65
2024-02-09T05:48:53.712Z,32.65
2024-02-09T05:51:20.634Z,32.68
2024-02-09T05:53:50.181Z,32.72
2024-02-09T05:56:27.269Z,32.71
2024-02-09T05:58:54.226Z,32.74
2024-02-09T06:01:21.842Z,32.75
2024-02-09T06:03:48.726Z,32.76
2024-02-09T06:06:22.423Z,32.78
2024-02-09T06:08:50.280Z,32.73
2024-02-09T06:11:17.511Z,32.26
2024-02-09T06:13:47.411Z,31.94
2024-02-09T06:16:14.859Z,31.66
2024-02-09T06:18:44.184Z,31.27
2024-02-09T06:21:10.877Z,30.88
2024-02-09T06:23:40.643Z,30.52
2024-02-09T06:26:08.827Z,30.08
2024-02-09T06:28:35.476Z,29.50
2024-02-09T06:31:02.591Z,29.09
2024-02-09T06:33:29.338Z,28.70
2024-02-09T06:35:59.838Z,28.30
2024-02-09T06:38:26.559Z,27.94
2024-02-09T06:40:54.934Z,27.63
2024-02-09T06:43:22.555Z,27.47
2024-02-09T06:45:51.365Z,27.30
2024-02-09T06:48:18.076Z,27.16
2024-02-09T06:50:45.627Z,27.09
2024-02-09T06:53:12.402Z,26.99
2024-02-09T06:55:39.127Z,26.90
2024-02-09T06:58:05.951Z,26.80
2024-02-09T07:00:36.865Z,26.61
2024-02-09T07:03:04.567Z,26.44
2024-02-09T07:05:31.766Z,26.39
2024-02-09T07:07:58.594Z,26.34
2024-02-09T07:10:25.242Z,26.72
2024-02-09T07:12:55.000Z,27.17
2024-02-09T07:15:21.927Z,27.67
2024-02-09T07:17:49.222Z,28.05
2024-02-09T07:20:18.592Z,28.26
2024-02-09T07:22:45.635Z,28.33
2024-02-09T07:25:12.457Z,28.16
2024-02-09T07:27:42.377Z,27.99
2024-02-09T07:30:09.686Z,27.79
2024-02-09T07:32:36.404Z,27.56
2024-02-09T07:35:03.459Z,27.44
2024-02-09T07:37:33.122Z,27.44
2024-02-09T07:40:00.873Z,27.37
2024-02-09T07:42:27.536Z,27.62
2024-02-09T07:44:54.215Z,27.52
2024-02-09T07:47:21.682Z,27.40
2024-02-09T07:49:48.442Z,27.27
2024-02-09T07:52:18.041Z,27.15
2024-02-09T07:54:44.804Z,27.08
2024-02-09T07:57:11.994Z,27.06
2024-02-09T08:02:23.436Z,26.98
2024-02-09T08:05:01.418Z,26.92
2024-02-09T08:07:28.202Z,26.95
2024-02-09T08:09:57.264Z,27.04
2024-02-09T08:12:25.031Z,27.38
2024-02-09T08:14:51.781Z,27.48
2024-02-09T08:17:19.494Z,27.66
2024-02-09T08:19:46.435Z,27.96
2024-02-09T08:22:13.156Z,28.07
2024-02-09T08:24:40.079Z,28.19
2024-02-09T08:27:06.807Z,28.38
2024-02-09T08:29:33.954Z,28.66
2024-02-09T08:32:00.674Z,28.80
2024-02-09T08:34:27.553Z,28.98
2024-02-09T08:36:54.634Z,29.06
2024-02-09T08:39:21.285Z,29.41
2024-02-09T08:41:47.938Z,29.58
2024-02-09T08:44:14.574Z,29.93
2024-02-09T08:46:41.313Z,29.94
2024-02-09T08:49:08.176Z,30.17
2024-02-09T08:51:34.905Z,30.26
2024-02-09T08:54:01.549Z,30.49
2024-02-09T08:56:28.350Z,30.56
2024-02-09T08:58:55.099Z,30.66
2024-02-09T09:01:22.083Z,30.80
2024-02-09T09:03:48.960Z,31.00
2024-02-09T09:06:15.824Z,30.98
2024-02-09T09:08:43.341Z,31.39
2024-02-09T09:11:10.204Z,31.58
2024-02-09T09:13:36.823Z,31.68
2024-02-09T09:16:03.462Z,31.74
2024-02-09T09:18:30.486Z,32.32
2024-02-09T09:20:57.395Z,32.22
2024-02-09T09:23:24.032Z,32.13
2024-02-09T09:25:50.937Z,32.28
2024-02-09T09:28:19.749Z,32.18
2024-02-09T09:30:47.317Z,32.04
2024-02-09T09:33:14.111Z,32.07
2024-02-09T09:35:42.084Z,32.05
2024-02-09T09:38:08.860Z,32.61
2024-02-09T09:40:36.447Z,32.71
2024-02-09T09:43:03.259Z,32.32
2024-02-09T09:45:30.641Z,32.26
2024-02-09T09:47:58.149Z,32.66
2024-02-09T09:50:26.046Z,32.52
2024-02-09T09:52:54.382Z,32.62
2024-02-09T09:55:23.873Z,32.72
2024-02-09T09:57:50.710Z,33.23
2024-02-09T10:00:18.436Z,32.66
2024-02-09T10:02:45.070Z,32.98
2024-02-09T10:05:12.617Z,33.16
2024-02-09T10:07:43.378Z,32.87
2024-02-09T10:10:15.004Z,32.82
2024-02-09T10:12:41.781Z,33.03
2024-02-09T10:15:08.962Z,32.91
2024-02-09T10:17:38.093Z,32.68
2024-02-09T10:20:06.021Z,32.61
2024-02-09T10:22:32.751Z,32.53
2024-02-09T10:24:59.989Z,32.26
2024-02-09T10:27:26.637Z,32.19
2024-02-09T10:29:53.276Z,31.80
2024-02-09T10:32:19.986Z,31.41
2024-02-09T10:34:49.678Z,31.12
2024-02-09T10:37:21.794Z,30.82
2024-02-09T10:39:57.758Z,30.67
2024-02-09T10:42:24.746Z,30.48
2024-02-09T10:44:56.883Z,30.31
2024-02-09T10:47:27.358Z,30.17
2024-02-09T10:49:57.025Z,30.11
2024-02-09T10:52:27.983Z,30.11
2024-02-09T10:54:57.860Z,30.25
2024-02-09T10:57:28.266Z,30.03
2024-02-09T10:59:54.922Z,30.05
2024-02-09T11:02:21.580Z,29.90
2024-02-09T11:04:48.606Z,29.83
2024-02-09T11:07:17.244Z,29.78
2024-02-09T11:09:46.903Z,29.71
2024-02-09T11:12:14.606Z,29.88
2024-02-09T11:14:45.744Z,29.67
2024-02-09T11:17:14.520Z,29.63
2024-02-09T11:19:41.905Z,29.76
2024-02-09T11:22:09.478Z,29.77
2024-02-09T11:24:36.452Z,29.85
2024-02-09T11:27:03.938Z,29.89
2024-02-09T11:29:33.549Z,29.85
2024-02-09T11:32:06.868Z,29.93
2024-02-09T11:34:36.277Z,29.95
2024-02-09T11:37:03.636Z,29.96
2024-02-09T11:39:35.063Z,29.93
2024-02-09T11:42:07.686Z,29.90
2024-02-09T11:44:34.335Z,29.87
2024-02-09T11:47:02.671Z,29.85
2024-02-09T11:49:33.439Z,29.84
2024-02-09T11:52:04.050Z,29.81
2024-02-09T11:54:31.041Z,29.90
2024-02-09T11:57:01.421Z,29.92
2024-02-09T11:59:33.254Z,29.95
2024-02-09T12:01:59.992Z,30.01
2024-02-09T12:04:27.123Z,30.04
2024-02-09T12:06:54.051Z,29.93
2024-02-09T12:09:21.315Z,29.94
2024-02-09T12:11:48.342Z,30.01
2024-02-09T12:14:15.343Z,29.92
2024-02-09T12:16:42.154Z,30.01
2024-02-09T12:19:09.293Z,30.17
2024-02-09T12:21:36.138Z,30.30
2024-02-09T12:24:02.767Z,30.38
2024-02-09T12:26:30.350Z,30.47
2024-02-09T12:28:57.320Z,30.53
2024-02-09T12:31:24.195Z,30.62
2024-02-09T12:33:51.685Z,30.78
2024-02-09T12:36:22.967Z,30.84
2024-02-09T12:38:56.866Z,31.12
2024-02-09T12:41:23.860Z,31.44
2024-02-09T12:44:04.308Z,31.46
2024-02-09T12:46:31.724Z,31.55
2024-02-09T12:48:58.713Z,31.36
2024-02-09T12:51:25.766Z,31.63
2024-02-09T12:53:53.016Z,31.65
2024-02-09T12:56:20.350Z,31.71
2024-02-09T12:58:48.376Z,31.91
2024-02-09T13:01:15.637Z,32.00
2024-02-09T13:03:44.916Z,32.21
2024-02-09T13:06:15.136Z,32.26
2024-02-09T13:08:42.154Z,32.34
2024-02-09T13:11:08.862Z,32.38
2024-02-09T13:13:39.383Z,32.40
2024-02-09T13:16:07.668Z,32.41
2024-02-09T13:18:34.439Z,32.49
2024-02-09T13:21:03.490Z,32.50
2024-02-09T13:23:30.373Z,32.62
2024-02-09T13:26:00.347Z,32.59
2024-02-09T13:28:31.517Z,32.55
2024-02-09T13:30:58.976Z,32.55
2024-02-09T13:33:25.892Z,32.59
2024-02-09T13:35:52.568Z,32.62
2024-02-09T13:38:19.387Z,32.64
2024-02-09T13:40:46.892Z,32.50
2024-02-09T13:43:13.613Z,32.45
2024-02-09T13:45:41.809Z,32.73
2024-02-09T13:48:11.214Z,32.69
2024-02-09T13:50:38.701Z,32.84
2024-02-09T13:53:06.153Z,32.75
2024-02-09T13:55:34.550Z,32.71
2024-02-09T13:58:02.010Z,32.72
2024-02-09T14:00:28.911Z,32.81
2024-02-09T14:02:55.726Z,32.78
2024-02-09T14:05:23.871Z,32.83
2024-02-09T14:07:52.344Z,32.86
2024-02-09T14:10:19.779Z,32.73
2024-02-09T14:12:47.190Z,32.86
2024-02-09T14:15:14.732Z,32.84
2024-02-09T14:17:41.816Z,32.59
2024-02-09T14:20:09.215Z,32.37
2024-02-09T14:22:36.367Z,32.31
2024-02-09T14:25:03.877Z,32.25
2024-02-09T14:27:30.756Z,31.96
2024-02-09T14:29:59.499Z,31.61
2024-02-09T14:32:26.788Z,31.32
2024-02-09T14:34:53.721Z,31.05
2024-02-09T14:37:23.723Z,30.82
2024-02-09T14:39:50.553Z,30.60
2024-02-09T14:42:17.264Z,30.53
2024-02-09T14:44:49.635Z,30.53
2024-02-09T14:47:20.468Z,30.47
2024-02-09T14:49:49.778Z,30.46
2024-02-09T14:52:17.325Z,30.28
2024-02-09T14:54:44.249Z,30.17
2024-02-09T14:57:12.050Z,30.16
2024-02-09T14:59:38.735Z,30.06
2024-02-09T15:02:05.526Z,29.99
2024-02-09T15:04:36.229Z,29.97
2024-02-09T15:07:05.013Z,30.08
2024-02-09T15:09:31.777Z,30.17
2024-02-09T15:12:02.894Z,30.22
2024-02-09T15:14:31.986Z,30.20
2024-02-09T15:17:04.234Z,30.12
2024-02-09T15:19:32.726Z,29.88
2024-02-09T15:21:59.691Z,29.74
2024-02-09T15:24:26.429Z,29.58
2024-02-09T15:26:53.075Z,29.51
2024-02-09T15:29:26.423Z,29.46
2024-02-09T15:31:55.475Z,29.39
2024-02-09T15:34:23.764Z,29.29
2024-02-09T15:36:51.300Z,29.23
2024-02-09T15:39:18.212Z,29.17
2024-02-09T15:41:45.483Z,29.17
2024-02-09T15:44:12.684Z,29.16
2024-02-09T15:46:39.754Z,29.11
2024-02-09T15:49:07.010Z,29.08
2024-02-09T15:51:35.850Z,29.08
2024-02-09T15:54:03.103Z,29.01
2024-02-09T15:56:37.164Z,28.97
2024-02-09T15:59:04.383Z,28.97
2024-02-09T16:01:40.596Z,28.93
2024-02-09T16:04:08.201Z,28.87
2024-02-09T16:06:35.639Z,28.81
2024-02-09T16:09:02.452Z,28.86
2024-02-09T16:11:32.479Z,28.86
2024-02-09T16:14:00.838Z,28.90
2024-02-09T16:16:30.005Z,28.95
2024-02-09T16:18:57.350Z,29.01
2024-02-09T16:21:25.888Z,29.07
2024-02-09T16:23:52.807Z,29.18
2024-02-09T16:26:19.881Z,29.28
2024-02-09T16:28:46.978Z,29.39
2024-02-09T16:31:17.127Z,29.53
2024-02-09T16:33:45.374Z,29.65
2024-02-09T16:36:12.552Z,29.78
2024-02-09T16:38:39.338Z,29.93
2024-02-09T16:41:06.758Z,30.09
2024-02-09T16:43:33.504Z,30.26
2024-02-09T16:46:00.986Z,30.33
2024-02-09T16:48:29.580Z,30.40
2024-02-09T16:50:58.266Z,30.46
2024-02-09T16:53:26.410Z,30.56
2024-02-09T16:55:53.376Z,30.63
2024-02-09T16:58:21.286Z,30.69
2024-02-09T17:00:48.502Z,30.71
2024-02-09T17:03:16.091Z,30.75
2024-02-09T17:05:42.957Z,30.82
2024-02-09T17:08:14.391Z,30.87
2024-02-09T17:10:41.103Z,30.97
2024-02-09T17:13:07.829Z,31.04
2024-02-09T17:15:35.155Z,31.13
2024-02-09T17:18:01.886Z,31.15
2024-02-09T17:20:29.164Z,31.24
2024-02-09T17:22:56.663Z,31.31
2024-02-09T17:25:24.534Z,31.40
2024-02-09T17:27:51.231Z,31.38
2024-02-09T17:30:17.937Z,31.50
2024-02-09T17:32:44.694Z,31.56
2024-02-09T17:35:11.430Z,31.62
2024-02-09T17:37:38.154Z,31.67
2024-02-09T17:40:05.328Z,31.71
2024-02-09T17:42:35.380Z,31.65
2024-02-09T17:45:03.491Z,31.77
2024-02-09T17:47:30.185Z,31.78
2024-02-09T17:49:57.531Z,31.75
2024-02-09T17:52:24.225Z,31.73
2024-02-09T17:54:50.875Z,31.73
2024-02-09T17:57:17.509Z,31.75
2024-02-09T17:59:44.170Z,31.75
2024-02-09T18:02:10.910Z,31.80
2024-02-09T18:04:38.879Z,31.83
2024-02-09T18:07:05.695Z,31.84
2024-02-09T18:09:32.381Z,31.86
2024-02-09T18:11:59.013Z,31.90
2024-02-09T18:14:25.671Z,31.83
2024-02-09T18:16:53.162Z,31.70
2024-02-09T18:19:21.679Z,31.56
2024-02-09T18:21:48.997Z,31.30
2024-02-09T18:24:16.721Z,31.16
2024-02-09T18:27:18.927Z,31.00
2024-02-09T18:29:45.629Z,30.76
2024-02-09T18:32:13.813Z,30.30
2024-02-09T18:34:41.043Z,29.93
2024-02-09T18:37:08.125Z,29.64
2024-02-09T18:39:36.951Z,29.49
2024-02-09T18:42:03.724Z,29.35
2024-02-09T18:44:30.735Z,29.26
2024-02-09T18:46:57.867Z,29.15
2024-02-09T18:49:27.130Z,29.09
2024-02-09T18:52:05.940Z,29.07
2024-02-09T18:54:32.688Z,29.02
2024-02-09T18:56:59.349Z,28.98
2024-02-09T18:59:25.983Z,28.98
2024-02-09T19:01:53.247Z,28.96
2024-02-09T19:04:19.982Z,28.92
2024-02-09T19:06:46.858Z,28.91
2024-02-09T19:09:14.207Z,28.91
2024-02-09T19:11:40.867Z,28.90
2024-02-09T19:14:10.399Z,28.92
2024-02-09T19:16:37.759Z,28.93
2024-02-09T19:19:05.380Z,29.01
2024-02-09T19:21:32.150Z,29.09
2024-02-09T19:23:58.973Z,29.16
2024-02-09T19:26:25.597Z,29.29
2024-02-09T19:28:53.120Z,29.38
2024-02-09T19:31:20.246Z,29.53
2024-02-09T19:33:48.970Z,29.69
2024-02-09T19:36:21.524Z,29.81
2024-02-09T19:38:48.584Z,30.00
2024-02-09T19:41:18.725Z,30.13
2024-02-09T19:43:46.018Z,30.21
2024-02-09T19:46:12.814Z,30.27
2024-02-09T19:48:41.410Z,30.34
2024-02-09T19:51:10.984Z,30.40
2024-02-09T19:53:37.697Z,30.47
2024-02-09T19:56:04.748Z,30.52
2024-02-09T19:58:31.853Z,30.56
2024-02-09T20:00:59.074Z,30.64
2024-02-09T20:03:26.466Z,30.68
2024-02-09T20:05:54.757Z,30.75
2024-02-09T20:08:21.769Z,30.79
2024-02-09T20:10:49.485Z,30.87
2024-02-09T20:13:18.300Z,30.93
2024-02-09T20:15:45.395Z,31.02
2024-02-09T20:18:12.237Z,31.04
2024-02-09T20:20:39.663Z,31.15
2024-02-09T20:23:06.522Z,31.17
2024-02-09T20:25:33.377Z,31.22
2024-02-09T20:28:00.194Z,31.28
2024-02-09T20:30:26.898Z,31.35
2024-02-09T20:32:57.842Z,31.38
2024-02-09T20:35:25.995Z,31.39
2024-02-09T20:37:52.970Z,31.38
2024-02-09T20:40:19.913Z,31.41
2024-02-09T20:42:46.787Z,31.40
2024-02-09T20:45:13.590Z,31.42
2024-02-09T20:47:44.289Z,31.42
2024-02-09T20:50:16.727Z,31.44
2024-02-09T20:52:50.865Z,31.46
2024-02-09T20:55:21.462Z,31.49
2024-02-09T20:57:49.997Z,31.53
2024-02-09T21:00:22.071Z,31.55
2024-02-09T21:02:53.460Z,31.57
2024-02-09T21:05:21.306Z,31.60
2024-02-09T21:07:49.004Z,31.61
2024-02-09T21:10:17.201Z,31.63
2024-02-09T21:12:47.731Z,31.64
2024-02-09T21:15:14.749Z,31.67
2024-02-09T21:17:41.581Z,31.70
2024-02-09T21:20:13.461Z,31.72
2024-02-09T21:22:40.358Z,31.72
2024-02-09T21:25:07.893Z,31.75
2024-02-09T21:27:34.768Z,31.74
2024-02-09T21:30:08.223Z,31.79
2024-02-09T21:32:36.634Z,31.79
2024-02-09T21:35:06.667Z,31.80
2024-02-09T21:37:34.376Z,31.84
2024-02-09T21:40:01.015Z,31.86
2024-02-09T21:42:30.807Z,31.89
2024-02-09T21:45:00.366Z,31.91
2024-02-09T21:47:30.144Z,31.92
2024-02-09T21:49:58.591Z,31.98
2024-02-09T21:52:25.376Z,31.99
2024-02-09T21:54:52.965Z,32.05
2024-02-09T21:57:22.343Z,32.06
2024-02-09T21:59:49.024Z,32.10
2024-02-09T22:02:20.822Z,32.13
2024-02-09T22:04:47.944Z,32.16
2024-02-09T22:07:14.737Z,32.18
2024-02-09T22:09:41.739Z,32.22
2024-02-09T22:12:08.638Z,32.27
2024-02-09T22:14:36.823Z,32.29
2024-02-09T22:17:07.524Z,32.32
2024-02-09T22:19:35.509Z,32.38
2024-02-09T22:22:02.926Z,32.38
2024-02-09T22:24:29.776Z,32.40
2024-02-09T22:26:57.524Z,32.43
2024-02-09T22:29:28.305Z,32.46
2024-02-09T22:31:55.037Z,32.51
2024-02-09T22:34:23.327Z,32.53
2024-02-09T22:36:51.710Z,32.57
2024-02-09T22:39:21.696Z,32.60
2024-02-09T22:41:51.724Z,32.65
2024-02-09T22:44:20.329Z,32.68
2024-02-09T22:46:47.901Z,32.72
2024-02-09T22:49:17.581Z,32.77
2024-02-09T22:51:44.259Z,32.81
2024-02-09T22:54:10.905Z,32.85
2024-02-09T22:56:40.723Z,32.88
2024-02-09T22:59:07.491Z,32.96
2024-02-09T23:01:34.227Z,33.00
2024-02-09T23:04:01.359Z,33.03
2024-02-09T23:06:31.789Z,33.07
2024-02-09T23:08:59.138Z,33.09
2024-02-09T23:11:27.366Z,33.13
2024-02-09T23:13:56.451Z,33.15
2024-02-09T23:16:24.382Z,33.21
2024-02-09T23:18:57.164Z,33.26
2024-02-09T23:21:24.478Z,33.27
2024-02-09T23:23:51.195Z,33.30
2024-02-09T23:26:18.043Z,33.32
2024-02-09T23:28:44.899Z,33.33
2024-02-09T23:31:11.650Z,33.36
2024-02-09T23:33:38.406Z,33.38
2024-02-09T23:36:05.388Z,33.42
2024-02-09T23:38:32.007Z,33.44
2024-02-09T23:40:58.805Z,33.47
2024-02-09T23:43:25.557Z,33.55
2024-02-09T23:45:54.442Z,33.66
2024-02-09T23:48:24.144Z,33.60
2024-02-09T23:50:52.182Z,33.59
2024-02-09T23:53:19.366Z,33.62
2024-02-09T23:55:46.151Z,33.68
2024-02-09T23:58:13.009Z,33.78
